createdAt,value
2017-07-17T00:01:14.900Z,69.07
2017-07-17T00:03:39.108Z,68.49
2017-07-17T00:06:03.387Z,70
2017-07-17T00:08:13.598Z,69.84
2017-07-17T00:10:35.631Z,70
2017-07-17T00:12:59.816Z,69.9
2017-07-17T00:17:00.708Z,70
2017-07-17T00:19:24.939Z,69.04
2017-07-17T00:21:49.146Z,69.23
2017-07-17T00:24:13.339Z,69.81
2017-07-17T00:26:37.495Z,69.32
2017-07-17T00:28:53.258Z,69.56
2017-07-17T00:30:54.828Z,69.62
2017-07-17T00:33:19.070Z,69.23
2017-07-17T00:35:29.293Z,69.46
2017-07-17T00:37:53.637Z,69.04
2017-07-17T00:40:17.838Z,69.81
2017-07-17T00:42:42.094Z,70.1
2017-07-17T00:44:57.946Z,69.62
2017-07-17T00:47:22.128Z,69.42
2017-07-17T00:49:46.356Z,69.71
2017-07-17T00:52:10.470Z,70.48
2017-07-17T00:54:26.204Z,70.39
2017-07-17T00:56:41.921Z,70
2017-07-17T00:58:43.886Z,69.71
2017-07-17T01:01:08.053Z,70.1
2017-07-17T01:03:32.966Z,70.39
2017-07-17T01:05:57.146Z,69.71
2017-07-17T01:08:12.831Z,70
2017-07-17T01:10:06.647Z,70.39
2017-07-17T01:12:22.353Z,70.48
2017-07-17T01:14:46.523Z,70.39
2017-07-17T01:16:57.174Z,70.48
2017-07-17T01:19:21.538Z,70.29
2017-07-17T01:21:45.693Z,70.29
2017-07-17T01:23:47.631Z,70.39
2017-07-17T01:26:03.349Z,71.26
2017-07-17T01:28:19.072Z,71.06
2017-07-17T01:30:43.220Z,71.26
2017-07-17T01:33:07.417Z,70.94
2017-07-17T01:35:31.591Z,70.68
2017-07-17T01:37:55.725Z,71.12
2017-07-17T01:40:19.806Z,71.61
2017-07-17T01:42:43.944Z,71.42
2017-07-17T01:45:08.084Z,71.42
2017-07-17T01:47:23.774Z,71.61
2017-07-17T01:49:47.901Z,71.32
2017-07-17T01:52:12.045Z,71.42
2017-07-17T01:54:27.764Z,71.03
2017-07-17T01:56:43.433Z,71.32
2017-07-17T01:59:07.641Z,71.42
2017-07-17T02:01:23.326Z,70.94
2017-07-17T02:03:49.555Z,71.51
2017-07-17T02:06:13.675Z,71.51
2017-07-17T02:08:37.796Z,72
2017-07-17T02:10:48.232Z,71.7
2017-07-17T02:13:12.376Z,72.54
2017-07-17T02:15:28.091Z,72.54
2017-07-17T02:17:52.161Z,72.92
2017-07-17T02:20:16.257Z,71.9
2017-07-17T02:22:40.400Z,72.48
2017-07-17T02:24:51.101Z,72.48
2017-07-17T02:27:15.204Z,72.54
2017-07-17T02:29:30.913Z,72.67
2017-07-17T02:31:55.114Z,73.11
2017-07-17T02:34:19.215Z,73.25
2017-07-17T02:36:43.307Z,73.06
2017-07-17T02:39:07.384Z,73.21
2017-07-17T02:41:23.155Z,73.69
2017-07-17T02:43:47.250Z,73.99
2017-07-17T02:46:11.307Z,73.02
2017-07-17T02:48:35.503Z,73.89
2017-07-17T02:50:51.161Z,73.41
2017-07-17T02:53:15.262Z,73.99
2017-07-17T02:55:39.364Z,73.99
2017-07-17T02:58:03.455Z,74.52
2017-07-17T03:00:27.580Z,74.91
2017-07-17T03:02:38.304Z,74.62
2017-07-17T03:05:02.427Z,74.24
2017-07-17T03:07:26.501Z,73.85
2017-07-17T03:09:50.584Z,73.75
2017-07-17T03:12:14.706Z,73.85
2017-07-17T03:14:39.799Z,74.05
2017-07-17T03:17:03.891Z,74.82
2017-07-17T03:19:29.002Z,74.82
2017-07-17T03:21:44.653Z,75.3
2017-07-17T03:24:08.771Z,75.1
2017-07-17T03:26:24.916Z,75.01
2017-07-17T03:28:48.998Z,74.72
2017-07-17T03:31:13.020Z,74.82
2017-07-17T03:33:28.724Z,74.91
2017-07-17T03:35:52.797Z,74.82
2017-07-17T03:38:16.867Z,74.52
2017-07-17T03:40:32.500Z,75.59
2017-07-17T03:42:56.615Z,74.62
2017-07-17T03:45:20.692Z,74.43
2017-07-17T03:47:44.809Z,75.2
2017-07-17T03:50:08.912Z,74.91
2017-07-17T03:52:32.982Z,75.1
2017-07-17T03:54:57.569Z,75.01
2017-07-17T03:57:00.249Z,75.4
2017-07-17T03:59:24.359Z,74.62
2017-07-17T04:01:48.467Z,73.66
2017-07-17T04:04:04.122Z,74.82
2017-07-17T04:06:28.176Z,73.66
2017-07-17T04:08:43.787Z,73.21
2017-07-17T04:11:07.905Z,72.83
2017-07-17T04:13:32.001Z,73.21
2017-07-17T04:15:56.108Z,73.02
2017-07-17T04:18:20.199Z,72.34
2017-07-17T04:20:44.369Z,72.54
2017-07-17T04:22:47.095Z,73.02
2017-07-17T04:25:02.794Z,73.11
2017-07-17T04:27:26.934Z,72.28
2017-07-17T04:29:51.043Z,71.9
2017-07-17T04:32:15.144Z,70.48
2017-07-17T04:34:22.329Z,65.92
2017-07-17T04:36:46.518Z,57.96
2017-07-17T04:39:10.770Z,54.61
2017-07-17T04:41:35.148Z,55.29
2017-07-17T04:43:59.597Z,49.63
2017-07-17T04:46:15.753Z,45.36
2017-07-17T04:48:40.556Z,42.11
2017-07-17T04:51:05.478Z,38.03
2017-07-17T04:53:30.436Z,35.36
2017-07-17T04:55:55.595Z,33.34
2017-07-17T04:58:20.818Z,32.26
2017-07-17T05:00:46.233Z,31.45
2017-07-17T05:03:11.755Z,28.73
2017-07-17T05:05:37.392Z,27.28
2017-07-17T05:08:03.017Z,25.36
2017-07-17T05:10:28.811Z,25.74
2017-07-17T05:12:54.680Z,23.63
2017-07-17T05:15:12.187Z,23.07
2017-07-17T05:17:38.323Z,22.75
2017-07-17T05:20:04.461Z,22.76
2017-07-17T05:22:30.696Z,21.2
2017-07-17T05:24:57.146Z,20.05
2017-07-17T05:27:23.582Z,18.79
2017-07-17T05:29:41.519Z,19.17
2017-07-17T05:31:44.157Z,17.13
2017-07-17T05:34:02.227Z,16.84
2017-07-17T05:36:28.955Z,15.86
2017-07-17T05:38:55.760Z,15.18
2017-07-17T05:41:22.652Z,15.58
2017-07-17T05:43:41.007Z,15.37
2017-07-17T05:45:59.503Z,13.71
2017-07-17T05:48:26.573Z,13.91
2017-07-17T05:50:53.821Z,13.41
2017-07-17T05:53:21.094Z,12.54
2017-07-17T05:55:48.450Z,12.44
2017-07-17T05:58:15.814Z,11.94
2017-07-17T06:00:43.182Z,11.03
2017-07-17T06:03:10.659Z,10.85
2017-07-17T06:05:38.132Z,10.05
2017-07-17T06:08:05.774Z,9.46
2017-07-17T06:10:33.455Z,9.45
2017-07-17T06:12:52.416Z,9.34
2017-07-17T06:15:20.178Z,8.86
2017-07-17T06:17:47.892Z,8.86
2017-07-17T06:20:15.788Z,8.94
2017-07-17T06:22:34.998Z,8.53
2017-07-17T06:25:02.969Z,8.25
2017-07-17T06:27:30.923Z,7.85
2017-07-17T06:29:50.317Z,7.85
2017-07-17T06:32:18.399Z,8.35
2017-07-17T06:34:37.796Z,7.65
2017-07-17T06:36:32.782Z,7.97
2017-07-17T06:39:00.948Z,7.14
2017-07-17T06:41:29.214Z,7.15
2017-07-17T06:43:57.465Z,7.65
2017-07-17T06:46:25.794Z,7.15
2017-07-17T06:48:54.158Z,9.53
2017-07-17T06:51:22.681Z,12.58
2017-07-17T06:53:51.163Z,12.98
2017-07-17T06:56:19.622Z,14.16
2017-07-17T06:58:48.131Z,13.18
2017-07-17T07:01:16.518Z,13.96
2017-07-17T07:03:36.071Z,13.78
2017-07-17T07:06:04.083Z,13.37
2017-07-17T07:08:31.897Z,13.78
2017-07-17T07:10:59.644Z,14.47
2017-07-17T07:13:27.189Z,14.65
2017-07-17T07:15:54.576Z,17.66
2017-07-17T07:18:21.809Z,18.84
2017-07-17T07:20:48.948Z,17.76
2017-07-17T07:23:07.303Z,17.01
2017-07-17T07:25:34.158Z,16.02
2017-07-17T07:28:01.000Z,15.92
2017-07-17T07:30:19.232Z,17.19
2017-07-17T07:32:45.958Z,16.78
2017-07-17T07:35:04.020Z,16.3
2017-07-17T07:37:30.772Z,16.97
2017-07-17T07:39:48.886Z,17.28
2017-07-17T07:42:15.537Z,16.69
2017-07-17T07:44:33.677Z,16.79
2017-07-17T07:47:00.421Z,17.29
2017-07-17T07:49:18.484Z,18.05
2017-07-17T07:51:36.622Z,19.13
2017-07-17T07:53:54.858Z,19.13
2017-07-17T07:56:21.722Z,18.55
2017-07-17T07:58:48.561Z,18.84
2017-07-17T08:01:15.399Z,17.37
2017-07-17T08:03:42.136Z,18.35
2017-07-17T08:06:00.398Z,17.57
2017-07-17T08:08:27.237Z,16.2
2017-07-17T08:10:54.047Z,16.31
2017-07-17T08:12:57.406Z,15.55
2017-07-17T08:15:24.259Z,17.08
2017-07-17T08:17:51.086Z,16.02
2017-07-17T08:20:17.934Z,16.02
2017-07-17T08:22:44.772Z,15.35
2017-07-17T08:25:11.648Z,15.05
2017-07-17T08:27:38.520Z,15.14
2017-07-17T08:29:48.170Z,15.33
2017-07-17T08:32:13.528Z,15.53
2017-07-17T08:34:48.006Z,16.7
2017-07-17T08:39:07.271Z,16.1
2017-07-17T08:41:34.235Z,16.02
2017-07-17T08:44:09.805Z,15.33
2017-07-17T08:46:36.696Z,15.43
2017-07-17T08:49:03.444Z,15.52
2017-07-17T08:51:30.223Z,15.23
2017-07-17T08:53:56.979Z,16.1
2017-07-17T08:56:25.811Z,15.13
2017-07-17T08:58:52.557Z,15.14
2017-07-17T09:01:19.300Z,15.49
2017-07-17T09:03:46.088Z,14.53
2017-07-17T09:06:11.350Z,15.53
2017-07-17T09:08:29.496Z,15.91
2017-07-17T09:10:56.191Z,15.33
2017-07-17T09:13:22.918Z,15.22
2017-07-17T09:15:49.671Z,16.3
2017-07-17T09:18:18.522Z,18.02
2017-07-17T09:20:45.219Z,17.07
2017-07-17T09:23:11.932Z,15.31
2017-07-17T09:25:39.663Z,15.02
2017-07-17T09:28:06.332Z,15.41
2017-07-17T09:30:33.036Z,15.31
2017-07-17T09:33:00.822Z,15.41
2017-07-17T09:35:35.335Z,16.19
2017-07-17T09:38:01.974Z,16
2017-07-17T09:40:28.629Z,15.9
2017-07-17T09:42:55.265Z,16.39
2017-07-17T09:45:21.911Z,19.19
2017-07-17T09:47:48.467Z,16.77
2017-07-17T09:50:15.054Z,15.9
2017-07-17T09:52:41.588Z,16.29
2017-07-17T09:55:08.102Z,16.66
2017-07-17T09:57:34.553Z,18.33
2017-07-17T10:00:01.034Z,17.16
2017-07-17T10:02:29.532Z,16.99
2017-07-17T10:04:47.427Z,17.35
2017-07-17T10:07:13.921Z,18.22
2017-07-17T10:09:40.385Z,19.2
2017-07-17T10:12:06.832Z,19.57
2017-07-17T10:14:33.235Z,21.79
2017-07-17T10:16:59.588Z,21.98
2017-07-17T10:19:25.856Z,22.38
2017-07-17T10:21:52.119Z,22.27
2017-07-17T10:24:18.360Z,23.26
2017-07-17T10:26:44.588Z,23.74
2017-07-17T10:29:02.186Z,25.54
2017-07-17T10:31:28.311Z,25.9
2017-07-17T10:33:54.386Z,27.08
2017-07-17T10:36:20.500Z,26.03
2017-07-17T10:38:46.437Z,25.45
2017-07-17T10:41:14.433Z,23.8
2017-07-17T10:43:40.435Z,24.29
2017-07-17T10:46:08.377Z,25.71
2017-07-17T10:48:34.282Z,27.44
2017-07-17T10:51:00.104Z,27.36
2017-07-17T10:53:25.872Z,25.93
2017-07-17T10:55:51.663Z,26.21
2017-07-17T10:58:25.290Z,26.59
2017-07-17T11:00:51.055Z,27.08
2017-07-17T11:03:16.775Z,27.58
2017-07-17T11:05:42.538Z,26.1
2017-07-17T11:08:08.278Z,26.03
2017-07-17T11:10:34.027Z,25.62
2017-07-17T11:12:59.787Z,26.68
2017-07-17T11:15:25.539Z,26.67
2017-07-17T11:17:51.233Z,25.91
2017-07-17T11:20:16.984Z,26.2
2017-07-17T11:22:34.162Z,25.63
2017-07-17T11:24:59.923Z,26.13
2017-07-17T11:27:25.685Z,26.77
2017-07-17T11:29:52.396Z,27.72
2017-07-17T11:32:18.077Z,27.76
2017-07-17T11:34:43.712Z,27.06
2017-07-17T11:37:09.372Z,27.17
2017-07-17T11:39:35.059Z,27.29
2017-07-17T11:42:00.738Z,26.59
2017-07-17T11:44:26.390Z,26.96
2017-07-17T11:56:32.198Z,28.02
2017-07-17T11:58:34.260Z,28.68
2017-07-17T12:00:59.900Z,30.88
2017-07-17T12:03:16.909Z,31.85
2017-07-17T12:07:18.786Z,31
2017-07-17T12:09:29.126Z,30.41
2017-07-17T12:11:54.603Z,30.88
2017-07-17T12:14:11.543Z,30.9
2017-07-17T12:16:28.448Z,29.74
2017-07-17T12:18:45.309Z,29.53
2017-07-17T12:20:38.497Z,30.11
2017-07-17T12:23:03.937Z,28.77
2017-07-17T12:25:29.305Z,29.41
2017-07-17T12:27:54.691Z,29.33
2017-07-17T12:30:05.956Z,28.85
2017-07-17T12:32:31.380Z,30.69
2017-07-17T12:34:25.063Z,32.14
2017-07-17T12:36:50.503Z,31.94
2017-07-17T12:39:07.390Z,31.07
2017-07-17T12:41:32.767Z,30.11
2017-07-17T12:43:58.088Z,29.24
2017-07-17T12:46:23.398Z,29.72
2017-07-17T12:50:25.889Z,31.85
2017-07-17T12:52:43.767Z,30.4
2017-07-17T12:55:09.186Z,30.69
2017-07-17T12:57:34.613Z,33.92
2017-07-17T12:59:59.943Z,31.45
2017-07-17T13:02:16.717Z,33.07
2017-07-17T13:04:33.575Z,32.21
2017-07-17T13:06:58.900Z,31.36
2017-07-17T13:09:24.254Z,31.84
2017-07-17T13:11:49.636Z,31.29
2017-07-17T13:14:06.439Z,29.25
2017-07-17T13:16:31.785Z,30.06
2017-07-17T13:18:57.121Z,29.94
2017-07-17T13:21:13.980Z,30.8
2017-07-17T13:23:39.348Z,30.41
2017-07-17T13:26:04.725Z,30.31
2017-07-17T13:28:30.202Z,30.04
2017-07-17T13:30:55.558Z,30.71
2017-07-17T13:33:04.027Z,30.15
2017-07-17T13:35:20.859Z,30.6
2017-07-17T13:37:37.721Z,32.05
2017-07-17T13:39:54.722Z,32.28
2017-07-17T13:42:02.977Z,32.26
2017-07-17T13:44:28.494Z,32.07
2017-07-17T13:46:53.837Z,31.48
2017-07-17T13:49:19.218Z,32.07
2017-07-17T13:51:44.523Z,32.17
2017-07-17T13:54:01.369Z,31.29
2017-07-17T13:56:18.187Z,30.73
2017-07-17T13:58:26.566Z,30.34
2017-07-17T14:00:26.479Z,30.52
2017-07-17T14:02:43.352Z,30.43
2017-07-17T14:05:08.741Z,30.79
2017-07-17T14:07:25.617Z,31.94
2017-07-17T14:09:50.928Z,31.1
2017-07-17T14:12:16.238Z,32.24
2017-07-17T14:14:41.517Z,33.1
2017-07-17T14:16:58.354Z,32.33
2017-07-17T14:19:23.677Z,32.81
2017-07-17T14:21:40.470Z,32.81
2017-07-17T14:24:05.749Z,33.2
2017-07-17T14:25:59.822Z,32.43
2017-07-17T14:28:25.120Z,32.23
2017-07-17T14:30:27.614Z,31.48
2017-07-17T14:32:52.953Z,30.15
2017-07-17T14:35:18.276Z,30.03
2017-07-17T14:37:43.541Z,31.67
2017-07-17T14:40:08.819Z,31.09
2017-07-17T14:42:34.156Z,29.83
2017-07-17T14:44:50.915Z,30.31
2017-07-17T14:47:07.713Z,30.22
2017-07-17T14:49:33.060Z,30.04
2017-07-17T14:51:58.434Z,30.04
2017-07-17T14:54:23.816Z,30.4
2017-07-17T14:56:49.157Z,30.41
2017-07-17T14:59:14.475Z,29.92
2017-07-17T15:01:39.786Z,29.75
2017-07-17T15:03:56.705Z,30.13
2017-07-17T15:06:13.563Z,29.53
2017-07-17T15:08:38.945Z,30.41
2017-07-17T15:11:04.273Z,31.76
2017-07-17T15:13:29.642Z,31.67
2017-07-17T15:15:55.025Z,32.14
2017-07-17T15:18:20.374Z,33.28
2017-07-17T15:20:45.810Z,33.28
2017-07-17T15:23:11.156Z,32.05
2017-07-17T15:25:14.310Z,32.23
2017-07-17T15:27:38.475Z,33.28
2017-07-17T15:29:55.331Z,32.59
2017-07-17T15:32:20.673Z,32.81
2017-07-17T15:34:37.452Z,32.05
2017-07-17T15:37:02.755Z,33.2
2017-07-17T15:39:27.997Z,32.53
2017-07-17T15:41:44.787Z,32.9
2017-07-17T15:44:10.063Z,33
2017-07-17T15:46:35.370Z,33.69
2017-07-17T15:49:00.680Z,32.62
2017-07-17T15:51:25.919Z,32.89
2017-07-17T15:53:51.140Z,32.41
2017-07-17T15:56:16.365Z,33
2017-07-17T15:58:41.673Z,33.1
2017-07-17T16:01:06.923Z,33.79
2017-07-17T16:03:32.182Z,33.67
2017-07-17T16:05:57.539Z,33.95
2017-07-17T16:08:05.760Z,34.34
2017-07-17T16:10:30.998Z,34.25
2017-07-17T16:12:42.436Z,33.69
2017-07-17T16:15:07.743Z,34.34
2017-07-17T16:17:24.515Z,34.06
2017-07-17T16:19:49.728Z,34.16
2017-07-17T16:22:14.893Z,34.54
2017-07-17T16:24:40.167Z,34.85
2017-07-17T16:27:05.807Z,34.26
2017-07-17T16:29:30.585Z,34.92
2017-07-17T16:31:56.267Z,34.8
2017-07-17T16:34:21.503Z,34.52
2017-07-17T16:36:46.715Z,34.52
2017-07-17T16:39:11.925Z,34.9
2017-07-17T16:41:37.132Z,34.13
2017-07-17T16:44:02.350Z,34.31
2017-07-17T16:46:28.617Z,34.92
2017-07-17T16:48:53.844Z,36.53
2017-07-17T16:51:19.481Z,36.35
2017-07-17T16:53:44.707Z,35.58
2017-07-17T16:56:09.818Z,36.25
2017-07-17T16:58:26.429Z,36.72
2017-07-17T17:00:51.539Z,37.59
2017-07-17T17:03:16.597Z,37.59
2017-07-17T17:05:41.714Z,37.49
2017-07-17T17:08:07.528Z,37.21
2017-07-17T17:10:34.899Z,38.73
2017-07-17T17:13:00.204Z,37.57
2017-07-17T17:15:25.166Z,38.28
2017-07-17T17:17:50.244Z,39.59
2017-07-17T17:20:16.623Z,40.08
2017-07-17T17:22:41.661Z,39.88
2017-07-17T17:25:06.737Z,39.61
2017-07-17T17:27:31.723Z,39.51
2017-07-17T17:29:56.801Z,39.61
2017-07-17T17:32:22.066Z,39.41
2017-07-17T17:34:47.062Z,41.64
2017-07-17T17:37:12.072Z,41.86
2017-07-17T17:39:37.181Z,42.64
2017-07-17T17:41:53.698Z,41.83
2017-07-17T17:44:18.729Z,41.56
2017-07-17T17:46:43.889Z,42.22
2017-07-17T17:49:09.227Z,42.69
2017-07-17T17:51:34.620Z,42.89
2017-07-17T17:54:00.479Z,43.95
2017-07-17T17:56:25.417Z,43.57
2017-07-17T17:58:51.409Z,43.95
2017-07-17T18:01:17.283Z,43.85
2017-07-17T18:03:42.104Z,44.8
2017-07-17T18:06:06.981Z,44.8
2017-07-17T18:08:32.028Z,44.8
2017-07-17T18:10:58.080Z,46.31
2017-07-17T18:13:01.430Z,45.19
2017-07-17T18:15:26.355Z,46.46
2017-07-17T18:17:51.217Z,44.41
2017-07-17T18:20:17.064Z,45.87
2017-07-17T18:22:41.926Z,45.46
2017-07-17T18:25:06.827Z,46.34
2017-07-17T18:27:31.729Z,46.69
2017-07-17T18:29:56.605Z,46.97
2017-07-17T18:32:21.491Z,46.7
2017-07-17T18:34:46.398Z,47.15
2017-07-17T18:37:11.260Z,47.63
2017-07-17T18:39:36.825Z,48.12
2017-07-17T18:42:01.247Z,48.39
2017-07-17T18:44:26.070Z,48.58
2017-07-17T18:48:25.660Z,48.49
2017-07-17T18:50:50.524Z,48.71
2017-07-17T18:53:15.230Z,48.24
2017-07-17T18:55:40.028Z,48.41
2017-07-17T18:58:04.813Z,49.24
2017-07-17T19:00:29.532Z,50.21
2017-07-17T19:02:54.274Z,49.46
2017-07-17T19:05:10.509Z,49.46
2017-07-17T19:07:12.155Z,49.37
2017-07-17T19:09:36.881Z,49.27
2017-07-17T19:12:01.625Z,48.97
2017-07-17T19:14:26.380Z,49.95
2017-07-17T19:16:51.125Z,50.24
2017-07-17T19:19:17.613Z,50.78
2017-07-17T19:21:42.337Z,51.17
2017-07-17T19:24:07.034Z,51.45
2017-07-17T19:26:31.777Z,50.97
2017-07-17T19:28:56.446Z,50.8
2017-07-17T19:31:21.134Z,51.55
2017-07-17T19:33:47.114Z,51.65
2017-07-17T19:36:22.314Z,51.94
2017-07-17T19:38:47.011Z,52.79
2017-07-17T19:41:21.791Z,52.89
2017-07-17T19:43:38.302Z,52.79
2017-07-17T19:46:28.839Z,53.18
2017-07-17T19:48:53.503Z,53.86
2017-07-17T19:51:27.342Z,53.77
2017-07-17T19:53:53.298Z,53.86
2017-07-17T19:56:08.524Z,54.22
2017-07-17T19:58:42.016Z,54.9
2017-07-17T20:00:58.221Z,54.52
2017-07-17T20:03:22.847Z,56.4
2017-07-17T20:05:53.895Z,55.55
2017-07-17T20:08:21.958Z,55.46
2017-07-17T20:10:50.006Z,55.27
2017-07-17T20:13:14.605Z,55.36
2017-07-17T20:15:30.728Z,56.34
2017-07-17T20:17:55.327Z,56.7
2017-07-17T20:20:19.923Z,56.6
2017-07-17T20:22:44.519Z,56.52
2017-07-17T20:25:09.125Z,57.76
2017-07-17T20:27:33.659Z,56.98
2017-07-17T20:29:49.776Z,58.31
2017-07-17T20:32:14.334Z,58.61
2017-07-17T20:34:30.523Z,58.64
2017-07-17T20:36:46.640Z,57.47
2017-07-17T20:39:02.744Z,57.67
2017-07-17T20:41:27.319Z,57.76
2017-07-17T20:43:51.919Z,58.73
2017-07-17T20:46:16.506Z,58.73
2017-07-17T20:48:41.090Z,58.73
2017-07-17T20:51:05.613Z,57.96
2017-07-17T20:53:30.190Z,59.03
2017-07-17T20:55:46.262Z,59.28
2017-07-17T20:58:10.883Z,60.81
2017-07-17T21:00:26.970Z,60.74
2017-07-17T21:02:51.430Z,60.55
2017-07-17T21:04:52.942Z,60.74
2017-07-17T21:07:17.503Z,60.64
2017-07-17T21:09:42.034Z,61
2017-07-17T21:12:06.548Z,61.29
2017-07-17T21:14:31.033Z,61.04
2017-07-17T21:16:47.109Z,60.84
2017-07-17T21:19:11.564Z,60.74
2017-07-17T21:21:37.234Z,61.78
2017-07-17T21:24:01.761Z,61.32
2017-07-17T21:26:26.368Z,62.43
2017-07-17T21:28:50.863Z,63.59
2017-07-17T21:31:15.449Z,63.59
2017-07-17T21:33:39.932Z,63.4
2017-07-17T21:36:04.535Z,64.14
2017-07-17T21:38:28.995Z,64.14
2017-07-17T21:40:45.110Z,64.27
2017-07-17T21:43:09.620Z,64.17
2017-07-17T21:45:34.203Z,65.2
2017-07-17T21:47:58.808Z,64.92
2017-07-17T21:50:23.286Z,65.37
2017-07-17T21:52:47.786Z,65.3
2017-07-17T21:55:12.269Z,66.34
2017-07-17T21:57:36.762Z,65.79
2017-07-17T21:59:52.747Z,66.37
2017-07-17T22:02:17.196Z,66.82
2017-07-17T22:04:41.629Z,67.4
2017-07-17T22:06:57.621Z,66.95
2017-07-17T22:09:22.049Z,67.88
2017-07-17T22:11:38.003Z,67.69
2017-07-17T22:13:48.048Z,68.05
2017-07-17T22:16:12.449Z,67.98
2017-07-17T22:18:36.863Z,67.21
2017-07-17T22:21:01.283Z,67.21
2017-07-17T22:23:25.723Z,67.3
2017-07-17T22:25:27.195Z,67.02
2017-07-17T22:27:48.979Z,67.69
2017-07-17T22:30:13.415Z,68.91
2017-07-17T22:32:14.873Z,68.91
2017-07-17T22:34:39.295Z,68.05
2017-07-17T22:36:40.737Z,67.4
2017-07-17T22:39:05.165Z,68.37
2017-07-17T22:41:29.561Z,69.89
2017-07-17T22:43:53.954Z,68.91
2017-07-17T22:46:18.339Z,68.53
2017-07-17T22:48:34.341Z,68.66
2017-07-17T22:50:58.820Z,68.47
2017-07-17T22:53:14.786Z,68.27
2017-07-17T22:55:31.771Z,68.66
2017-07-17T22:57:56.225Z,67.69
2017-07-17T23:00:20.558Z,68.08
2017-07-17T23:02:45.011Z,67.88
2017-07-17T23:05:11.432Z,67.69
2017-07-17T23:07:27.422Z,67.69
2017-07-17T23:09:51.928Z,68.08
2017-07-17T23:12:16.403Z,68.85
2017-07-17T23:14:32.398Z,68.66
2017-07-17T23:16:58.847Z,67.88
2017-07-17T23:19:23.341Z,69.11
2017-07-17T23:21:48.737Z,68.27
2017-07-17T23:24:04.733Z,68.76
2017-07-17T23:26:20.723Z,68.47
2017-07-17T23:28:46.137Z,67.98
2017-07-17T23:31:10.523Z,69.79
2017-07-17T23:33:34.907Z,69.31
2017-07-17T23:35:52.858Z,69.69
2017-07-17T23:38:18.261Z,69.69
2017-07-17T23:40:42.641Z,69.89
2017-07-17T23:43:07.042Z,69.4
2017-07-17T23:45:32.452Z,69.31
2017-07-17T23:47:56.862Z,71.01
2017-07-17T23:50:21.200Z,70.18
2017-07-17T23:52:47.572Z,70.92
2017-07-17T23:55:11.915Z,72.08
2017-07-17T23:57:36.234Z,72.42
